Time;durP1;ratioP1;P1;durP2;ratioP2;P2;SDS_P1;SDS_P2;PMS_P1;PMS_P2;Temp;Humidity;BMP_temperature;BMP_pressure;BME280_temperature;BME280_humidity;BME280_pressure;Samples;Min_cycle;Max_cycle;Signal;HPM_P1;HPM_P2
2022/11/12 00:00:57;;;;;;;7.13;1.80;;;;;;;11.89;100.00;101565.66;5030297;28;20046;-87
2022/11/12 00:03:25;;;;;;;3.30;1.40;;;;;;;11.88;100.00;101584.06;5037685;28;20049;-87
2022/11/12 00:05:52;;;;;;;5.55;1.60;;;;;;;11.72;100.00;101574.06;5027928;28;20526;-86
2022/11/12 00:08:19;;;;;;;5.10;1.60;;;;;;;11.73;100.00;101578.38;5026263;28;20449;-87
2022/11/12 00:10:46;;;;;;;5.60;1.95;;;;;;;11.49;100.00;101584.31;5045051;28;20057;-87
2022/11/12 00:13:13;;;;;;;5.43;2.00;;;;;;;11.49;100.00;101582.56;5030658;28;20131;-87
2022/11/12 00:15:40;;;;;;;7.30;2.42;;;;;;;11.43;100.00;101576.63;5044334;28;20249;-87
2022/11/12 00:18:07;;;;;;;7.47;2.33;;;;;;;11.51;100.00;101588.63;5028831;28;20053;-88
2022/11/12 00:20:34;;;;;;;5.65;1.77;;;;;;;11.69;100.00;101595.13;5025483;28;20507;-87
2022/11/12 00:23:01;;;;;;;6.30;2.00;;;;;;;11.66;100.00;101607.47;5031737;28;20088;-87
2022/11/12 00:25:29;;;;;;;7.70;2.25;;;;;;;11.52;100.00;101606.06;5029951;28;20050;-86
2022/11/12 00:28:07;;;;;;;5.85;2.20;;;;;;;11.52;100.00;101615.72;5025300;28;20049;-87
2022/11/12 00:30:37;;;;;;;10.02;2.78;;;;;;;11.29;100.00;101601.47;5020721;28;20045;-86
2022/11/12 00:33:05;;;;;;;5.28;2.17;;;;;;;11.15;100.00;101622.78;5030759;28;20142;-86
2022/11/12 00:35:32;;;;;;;6.22;1.88;;;;;;;11.27;100.00;101611.13;5029039;28;20476;-86
2022/11/12 00:37:59;;;;;;;5.80;1.85;;;;;;;11.50;100.00;101647.22;5029857;28;20061;-85
2022/11/12 00:40:27;;;;;;;4.05;1.38;;;;;;;11.40;100.00;101637.88;5030761;28;20105;-86
2022/11/12 00:42:54;;;;;;;4.30;1.40;;;;;;;11.45;100.00;101637.75;5030042;28;20659;-86
2022/11/12 00:45:21;;;;;;;4.50;1.10;;;;;;;11.41;100.00;101600.28;5015484;28;20046;-87
2022/11/12 00:47:47;;;;;;;4.45;1.27;;;;;;;11.49;100.00;101621.03;5027215;28;20131;-87
2022/11/12 00:50:15;;;;;;;4.50;1.35;;;;;;;11.50;100.00;101646.38;5030225;28;20187;-87
2022/11/12 00:52:42;;;;;;;4.72;1.50;;;;;;;11.26;100.00;101640.88;5029606;28;20041;-87
2022/11/12 00:55:09;;;;;;;4.72;1.50;;;;;;;11.19;100.00;101640.19;5029639;28;20041;-86
2022/11/12 00:57:36;;;;;;;3.70;1.10;;;;;;;11.12;100.00;101641.25;5022167;28;20050;-86
2022/11/12 01:00:05;;;;;;;3.38;1.33;;;;;;;11.09;100.00;101637.84;5030351;28;20049;-86
2022/11/12 01:02:33;;;;;;;6.43;1.35;;;;;;;11.08;100.00;101642.19;5017694;28;20058;-85
2022/11/12 01:05:08;;;;;;;3.72;1.38;;;;;;;11.02;100.00;101644.97;5020539;28;20388;-87
2022/11/12 01:07:35;;;;;;;3.85;1.30;;;;;;;10.99;100.00;101632.78;5024443;28;20056;-85
2022/11/12 01:10:01;;;;;;;3.83;1.33;;;;;;;11.06;100.00;101638.75;5029408;28;20045;-86
2022/11/12 01:12:33;;;;;;;4.28;1.30;;;;;;;11.13;100.00;101634.22;5017722;28;20061;-86
2022/11/12 01:15:00;;;;;;;2.67;1.10;;;;;;;10.95;100.00;101609.34;5028599;28;20038;-86
2022/11/12 01:17:27;;;;;;;3.13;1.23;;;;;;;10.76;100.00;101599.31;5014018;28;20061;-87
2022/11/12 01:19:54;;;;;;;2.42;1.00;;;;;;;10.83;100.00;101623.59;5026646;28;20132;-87
2022/11/12 01:22:21;;;;;;;2.85;1.15;;;;;;;10.81;100.00;101604.44;5029832;28;20045;-87
2022/11/12 01:24:47;;;;;;;3.35;1.00;;;;;;;10.83;100.00;101613.13;5028060;28;20414;-87
2022/11/12 01:27:14;;;;;;;2.58;1.20;;;;;;;10.79;100.00;101607.09;5022186;28;20046;-87
2022/11/12 01:29:41;;;;;;;5.50;1.10;;;;;;;10.79;100.00;101596.63;5029365;28;20099;-86
2022/11/12 01:32:08;;;;;;;4.88;1.35;;;;;;;10.94;100.00;101624.22;5024782;28;20045;-86
2022/11/12 01:34:34;;;;;;;1.50;0.85;;;;;;;10.89;100.00;101615.59;5027013;28;20041;-87
2022/11/12 01:37:01;;;;;;;2.28;1.05;;;;;;;10.64;100.00;101599.59;5035119;28;20638;-85
2022/11/12 01:39:28;;;;;;;3.13;1.10;;;;;;;10.72;100.00;101636.13;5021006;28;20042;-87
2022/11/12 01:41:54;;;;;;;3.03;1.00;;;;;;;10.86;100.00;101639.25;5029554;28;20403;-86
2022/11/12 01:44:25;;;;;;;3.75;1.50;;;;;;;10.95;100.00;101651.28;5029302;28;20605;-86
2022/11/12 01:47:13;;;;;;;3.63;1.65;;;;;;;10.96;100.00;101651.25;5028968;28;20049;-86
2022/11/12 01:49:46;;;;;;;2.08;1.00;;;;;;;10.81;100.00;101654.22;5016336;28;20041;-86
2022/11/12 01:52:26;;;;;;;3.45;1.13;;;;;;;10.74;100.00;101645.63;5023980;28;20045;-86
2022/11/12 01:54:54;;;;;;;;;;;;;;;10.91;100.00;101647.03;5029937;28;20072;-87
2022/11/12 01:57:29;;;;;;;2.05;1.00;;;;;;;10.74;100.00;101652.66;5028128;28;21210;-86
2022/11/12 02:00:06;;;;;;;4.68;1.20;;;;;;;10.67;100.00;101661.53;5017568;28;20049;-86
2022/11/12 02:02:35;;;;;;;4.60;1.10;;;;;;;10.62;100.00;101659.03;5015665;28;20112;-87
2022/11/12 02:05:05;;;;;;;2.25;0.90;;;;;;;10.64;100.00;101650.25;5029533;28;20041;-87
2022/11/12 02:07:33;;;;;;;3.92;1.20;;;;;;;10.64;100.00;101662.47;5028410;28;20054;-87
2022/11/12 02:10:02;;;;;;;4.70;0.98;;;;;;;10.46;100.00;101663.75;5029108;28;20058;-87
2022/11/12 02:15:28;;;;;;;4.25;1.00;;;;;;;10.09;100.00;101677.59;5018046;28;20056;-87
2022/11/12 02:17:55;;;;;;;2.58;0.93;;;;;;;10.12;100.00;101669.69;5015442;28;20334;-87
2022/11/12 02:20:22;;;;;;;2.78;1.00;;;;;;;10.41;100.00;101669.09;5026356;28;20045;-87
2022/11/12 02:22:49;;;;;;;2.38;1.00;;;;;;;10.33;100.00;101660.53;5025903;28;20049;-87
2022/11/12 02:25:23;;;;;;;3.63;1.02;;;;;;;10.20;100.00;101662.53;5032510;28;20320;-87
2022/11/12 02:27:53;;;;;;;3.50;1.58;;;;;;;10.23;100.00;101686.03;5032225;28;20057;-87
2022/11/12 02:30:32;;;;;;;3.58;1.10;;;;;;;10.22;100.00;101680.84;5032286;28;20051;-87
2022/11/12 02:32:58;;;;;;;1.58;0.80;;;;;;;10.20;100.00;101680.84;5032950;28;20057;-87
2022/11/12 02:35:26;;;;;;;2.13;0.93;;;;;;;10.27;100.00;101668.50;5033218;28;20099;-87
2022/11/12 02:37:53;;;;;;;3.42;0.88;;;;;;;10.20;100.00;101669.53;5031519;28;20061;-87
2022/11/12 02:40:20;;;;;;;1.88;0.90;;;;;;;10.24;100.00;101660.72;5033239;28;20049;-87
2022/11/12 02:42:46;;;;;;;2.22;0.90;;;;;;;10.30;100.00;101662.34;5032726;28;20049;-87
2022/11/12 02:45:14;;;;;;;2.00;0.90;;;;;;;9.99;100.00;101691.78;5032867;28;20046;-87
2022/11/12 02:47:41;;;;;;;1.40;0.90;;;;;;;10.14;100.00;101688.81;5032083;28;20048;-87
2022/11/12 02:50:08;;;;;;;2.28;1.08;;;;;;;10.02;100.00;101655.94;5033066;28;20491;-86
2022/11/12 02:52:35;;;;;;;3.33;1.00;;;;;;;10.19;100.00;101670.41;5032027;28;20511;-86
2022/11/12 02:55:02;;;;;;;3.67;1.20;;;;;;;10.27;100.00;101685.06;5032665;28;20060;-87
2022/11/12 02:57:29;;;;;;;5.75;1.30;;;;;;;10.25;100.00;101683.34;5027805;28;20054;-86
2022/11/12 02:59:56;;;;;;;2.72;1.00;;;;;;;10.27;100.00;101679.84;5032287;28;20045;-85
2022/11/12 03:02:23;;;;;;;1.25;0.90;;;;;;;10.40;100.00;101685.69;5032402;28;20049;-87
2022/11/12 03:04:50;;;;;;;1.30;0.70;;;;;;;10.68;100.00;101686.81;5032503;28;20522;-85
2022/11/12 03:07:16;;;;;;;2.03;0.88;;;;;;;10.79;100.00;101692.69;5031977;28;20057;-86
2022/11/12 03:09:43;;;;;;;1.35;0.85;;;;;;;10.82;100.00;101690.88;5032176;28;20742;-85
2022/11/12 03:12:10;;;;;;;2.22;1.00;;;;;;;10.82;100.00;101674.28;5024347;28;20155;-86
2022/11/12 03:14:37;;;;;;;1.27;0.80;;;;;;;10.79;100.00;101674.34;5023410;28;20617;-86
2022/11/12 03:17:04;;;;;;;2.20;0.90;;;;;;;10.69;100.00;101665.84;5014483;28;20058;-85
2022/11/12 03:19:30;;;;;;;1.52;0.95;;;;;;;10.79;100.00;101671.75;5028712;28;20050;-86
2022/11/12 03:21:57;;;;;;;2.30;0.90;;;;;;;10.62;100.00;101636.34;5026899;28;20735;-86
2022/11/12 03:24:24;;;;;;;2.17;0.80;;;;;;;10.57;100.00;101660.88;5024287;28;20164;-86
2022/11/12 03:26:51;;;;;;;2.35;0.90;;;;;;;10.50;100.00;101672.41;5026768;28;20045;-86
2022/11/12 03:29:17;;;;;;;2.55;0.90;;;;;;;10.50;100.00;101694.22;5020964;28;20385;-86
2022/11/12 03:31:45;;;;;;;4.40;1.55;;;;;;;10.25;100.00;101713.03;5029001;28;20057;-86
2022/11/12 03:34:11;;;;;;;2.38;1.05;;;;;;;10.34;100.00;101729.47;5028668;28;20484;-87
2022/11/12 03:36:38;;;;;;;3.33;1.00;;;;;;;10.34;100.00;101711.13;5024704;28;20087;-86
2022/11/12 03:39:05;;;;;;;0.93;0.80;;;;;;;10.44;100.00;101723.13;5031403;28;20045;-87
2022/11/12 03:41:32;;;;;;;2.13;1.13;;;;;;;10.39;100.00;101727.59;5031592;28;20045;-86
2022/11/12 03:43:58;;;;;;;3.90;1.10;;;;;;;10.24;100.00;101707.84;5031086;28;20046;-86
2022/11/12 03:46:25;;;;;;;4.10;1.00;;;;;;;10.18;100.00;101723.63;5017136;28;20045;-86
2022/11/12 03:48:52;;;;;;;2.47;1.00;;;;;;;10.03;100.00;101724.81;5031801;28;20115;-86
2022/11/12 03:51:20;;;;;;;3.03;1.10;;;;;;;10.16;100.00;101723.66;5032313;28;20053;-86
2022/11/12 03:53:46;;;;;;;1.45;0.95;;;;;;;10.19;100.00;101733.22;5030919;28;20049;-86
2022/11/12 03:56:13;;;;;;;1.30;0.80;;;;;;;10.25;100.00;101733.09;5025413;28;20037;-86
2022/11/12 03:58:40;;;;;;;1.05;0.77;;;;;;;10.14;100.00;101715.00;5028980;28;20096;-86
2022/11/12 04:01:06;;;;;;;3.05;0.88;;;;;;;10.25;100.00;101730.47;5019399;28;20049;-87
2022/11/12 04:03:33;;;;;;;2.15;1.08;;;;;;;10.30;100.00;101733.00;5025498;28;20126;-87
2022/11/12 04:08:47;;;;;;;2.25;0.85;;;;;;;10.14;100.00;101716.75;5017502;28;20472;-86
2022/11/12 04:11:15;;;;;;;1.95;0.90;;;;;;;10.30;100.00;101735.63;5030673;28;20160;-87
2022/11/12 04:13:51;;;;;;;2.40;0.90;;;;;;;10.15;100.00;101731.56;5021457;28;20054;-87
2022/11/12 04:22:04;;;;;;;1.35;0.80;;;;;;;10.07;100.00;101750.91;5022891;28;20053;-87
2022/11/12 04:27:31;;;;;;;0.95;0.80;;;;;;;10.27;100.00;101757.50;5030700;28;20053;-86
2022/11/12 04:30:20;;;;;;;1.63;0.90;;;;;;;10.29;100.00;101749.59;5011447;28;20050;-86
2022/11/12 04:32:54;;;;;;;2.13;0.90;;;;;;;10.27;100.00;101749.66;5030301;28;20064;-88
2022/11/12 04:35:26;;;;;;;1.67;0.90;;;;;;;10.26;100.00;101753.16;5032072;28;20049;-87
2022/11/12 04:37:52;;;;;;;1.88;0.80;;;;;;;10.12;100.00;101740.34;5024009;28;20054;-87
2022/11/12 04:45:57;;;;;;;1.52;0.90;;;;;;;10.39;100.00;101743.31;5030705;28;20050;-88
2022/11/12 04:48:24;;;;;;;2.03;1.17;;;;;;;10.33;100.00;101746.94;5030663;28;20053;-86
2022/11/12 04:50:55;;;;;;;1.15;0.80;;;;;;;10.20;100.00;101756.75;5031303;28;20077;-87
2022/11/12 04:53:23;;;;;;;1.52;0.70;;;;;;;10.25;100.00;101759.25;5030830;28;20128;-84
2022/11/12 04:55:54;;;;;;;3.78;0.90;;;;;;;10.36;100.00;101775.66;5030154;28;20417;-85
2022/11/12 04:58:21;;;;;;;2.55;1.00;;;;;;;10.15;100.00;101742.03;5030064;28;20503;-84
2022/11/12 05:00:49;;;;;;;3.38;1.00;;;;;;;10.40;100.00;101748.53;5030488;28;20096;-85
2022/11/12 05:03:16;;;;;;;2.65;1.00;;;;;;;10.55;100.00;101768.31;5030227;28;20092;-84
2022/11/12 05:05:43;;;;;;;1.85;0.90;;;;;;;10.62;100.00;101753.31;5023319;28;20167;-85
2022/11/12 05:08:10;;;;;;;1.70;0.85;;;;;;;10.54;100.00;101750.00;5029248;28;20061;-88
2022/11/12 05:10:37;;;;;;;1.75;0.95;;;;;;;10.49;100.00;101764.94;5030360;28;20049;-88
2022/11/12 05:13:03;;;;;;;3.13;0.95;;;;;;;10.47;100.00;101748.41;5030858;28;20472;-90
2022/11/12 05:15:30;;;;;;;2.67;1.00;;;;;;;10.45;100.00;101748.44;5030995;28;20060;-87
2022/11/12 05:17:57;;;;;;;2.45;0.90;;;;;;;10.74;100.00;101773.16;5025614;28;20135;-87
2022/11/12 05:20:24;;;;;;;2.63;1.00;;;;;;;10.71;100.00;101754.88;5022260;28;20103;-86
2022/11/12 05:22:51;;;;;;;2.70;1.10;;;;;;;10.81;100.00;101759.88;5029481;28;20061;-86
2022/11/12 05:25:33;;;;;;;2.58;0.85;;;;;;;10.79;100.00;101747.72;5028920;28;20046;-85
2022/11/12 05:28:00;;;;;;;3.03;1.00;;;;;;;10.76;100.00;101740.75;5028548;28;20103;-86
2022/11/12 05:30:26;;;;;;;3.50;0.80;;;;;;;10.91;100.00;101762.31;5016435;28;20050;-85
2022/11/12 05:32:53;;;;;;;1.50;0.90;;;;;;;10.82;100.00;101740.66;5024100;28;20506;-86
2022/11/12 05:35:20;;;;;;;2.10;0.93;;;;;;;10.75;100.00;101743.44;5021116;28;20131;-88
2022/11/12 05:37:46;;;;;;;3.70;0.90;;;;;;;10.55;100.00;101701.97;5028494;28;20107;-86
2022/11/12 05:40:13;;;;;;;1.98;0.90;;;;;;;10.43;100.00;101735.38;5019639;28;20053;-86
2022/11/12 05:42:40;;;;;;;1.90;1.00;;;;;;;10.60;100.00;101757.72;5026779;28;20050;-86
2022/11/12 05:45:07;;;;;;;2.28;0.90;;;;;;;10.74;100.00;101741.72;5029010;28;20041;-86
2022/11/12 05:47:36;;;;;;;1.00;0.80;;;;;;;10.85;100.00;101752.78;5013618;28;20045;-87
2022/11/12 05:50:03;;;;;;;3.10;0.88;;;;;;;10.66;100.00;101710.47;5020344;28;20057;-86
2022/11/12 05:52:30;;;;;;;1.25;0.80;;;;;;;10.80;100.00;101716.25;5019634;28;20079;-87
2022/11/12 05:54:56;;;;;;;0.90;0.73;;;;;;;10.77;100.00;101716.31;5027127;28;20096;-87
2022/11/12 05:57:26;;;;;;;0.70;0.70;;;;;;;10.89;100.00;101719.53;5024736;28;20052;-87
2022/11/12 05:59:54;;;;;;;1.90;0.80;;;;;;;10.71;100.00;101710.34;5026150;28;20049;-86
2022/11/12 06:02:21;;;;;;;1.33;0.70;;;;;;;10.74;100.00;101699.81;5023999;28;20049;-86
2022/11/12 06:04:48;;;;;;;1.90;0.80;;;;;;;10.86;100.00;101712.63;5022657;28;20416;-86
2022/11/12 06:07:15;;;;;;;1.73;0.70;;;;;;;11.11;100.00;101740.88;5023350;28;20518;-89
2022/11/12 06:09:43;;;;;;;1.65;0.80;;;;;;;11.20;100.00;101745.88;5020118;28;20056;-87
2022/11/12 06:12:13;;;;;;;1.65;0.90;;;;;;;11.21;100.00;101739.75;5024302;28;20053;-87
2022/11/12 06:14:40;;;;;;;6.85;1.00;;;;;;;11.29;100.00;101735.16;5025619;28;20045;-86
2022/11/12 06:17:06;;;;;;;2.65;1.00;;;;;;;11.31;100.00;101738.59;5026889;28;20049;-86
2022/11/12 06:19:33;;;;;;;1.67;0.80;;;;;;;11.50;100.00;101743.41;5022815;28;20065;-86
2022/11/12 06:22:03;;;;;;;1.65;0.80;;;;;;;11.53;100.00;101732.84;5027877;28;20053;-86
2022/11/12 06:24:30;;;;;;;3.60;1.00;;;;;;;11.68;100.00;101737.69;5026259;28;20053;-86
2022/11/12 06:27:01;;;;;;;1.13;0.70;;;;;;;11.69;100.00;101725.44;5025817;28;20139;-85
2022/11/12 06:29:28;;;;;;;2.30;0.88;;;;;;;11.66;100.00;101710.63;5028481;28;20422;-86
2022/11/12 06:31:55;;;;;;;2.42;0.90;;;;;;;11.72;100.00;101723.59;5028052;28;20049;-86
2022/11/12 06:34:22;;;;;;;1.15;0.77;;;;;;;11.68;100.00;101710.59;5027127;28;20107;-87
2022/11/12 06:36:49;;;;;;;3.13;0.80;;;;;;;11.74;100.00;101720.94;5019643;28;20049;-86
2022/11/12 06:39:16;;;;;;;2.65;0.88;;;;;;;11.68;100.00;101708.81;5024741;28;20432;-86
2022/11/12 06:41:43;;;;;;;1.67;0.80;;;;;;;11.65;100.00;101702.78;5041897;28;20053;-85
2022/11/12 06:44:10;;;;;;;1.95;0.80;;;;;;;11.62;100.00;101698.50;5029453;28;20049;-87
2022/11/12 06:46:36;;;;;;;2.10;0.80;;;;;;;11.56;100.00;101696.03;5025387;28;20045;-87
2022/11/12 06:49:07;;;;;;;0.70;0.70;;;;;;;11.52;100.00;101703.13;5028545;28;20111;-87
2022/11/12 06:51:34;;;;;;;1.88;0.90;;;;;;;11.52;100.00;101716.22;5026246;28;20060;-90
2022/11/12 06:54:01;;;;;;;3.33;0.90;;;;;;;11.28;100.00;101695.88;5024974;28;20071;-86
2022/11/12 06:56:28;;;;;;;3.20;1.20;;;;;;;11.36;100.00;101721.00;5021812;28;20060;-86
2022/11/12 06:58:55;;;;;;;3.20;0.95;;;;;;;11.32;100.00;101721.13;5038619;28;20061;-87
2022/11/12 07:01:25;;;;;;;3.90;1.35;;;;;;;11.22;100.00;101715.25;5026827;28;20041;-85
2022/11/12 07:03:52;;;;;;;1.45;0.90;;;;;;;11.33;100.00;101734.22;5026250;28;20046;-91
2022/11/12 07:06:20;;;;;;;2.35;1.02;;;;;;;11.25;100.00;101725.66;5028966;28;20690;-89
2022/11/12 07:08:48;;;;;;;2.75;1.02;;;;;;;11.23;100.00;101739.72;5029148;28;20057;-89
2022/11/12 07:11:16;;;;;;;2.53;1.17;;;;;;;11.31;100.00;101746.47;5032270;28;20049;-88
2022/11/12 07:13:43;;;;;;;2.38;1.10;;;;;;;11.30;100.00;101747.38;5031558;28;20081;-90
2022/11/12 07:16:11;;;;;;;2.38;1.15;;;;;;;11.17;100.00;101732.84;5024095;28;20041;-88
2022/11/12 07:18:39;;;;;;;5.43;1.50;;;;;;;11.39;100.00;101755.03;5028988;28;20056;-86
2022/11/12 07:21:09;;;;;;;4.95;1.52;;;;;;;11.44;100.00;101747.06;5024860;28;20111;-85
2022/11/12 07:23:37;;;;;;;4.00;1.45;;;;;;;11.49;100.00;101754.78;5028860;28;20147;-85
2022/11/12 07:26:06;;;;;;;3.17;1.33;;;;;;;11.58;100.00;101767.69;5029612;28;20511;-85
2022/11/12 07:28:33;;;;;;;6.05;1.70;;;;;;;11.46;100.00;101752.25;5040147;28;20053;-86
2022/11/12 07:31:04;;;;;;;3.42;1.20;;;;;;;11.69;100.00;101767.41;5028470;28;20046;-86
2022/11/12 07:33:31;;;;;;;3.90;1.25;;;;;;;11.58;100.00;101746.72;5023465;28;20385;-86
2022/11/12 07:36:02;;;;;;;4.15;1.13;;;;;;;11.80;100.00;101759.25;5025053;28;20056;-86
2022/11/12 07:38:30;;;;;;;2.28;1.00;;;;;;;11.76;100.00;101763.72;5025098;28;20049;-86
2022/11/12 07:41:21;;;;;;;4.28;1.30;;;;;;;12.05;100.00;101777.88;5029432;28;20079;-87
2022/11/12 07:43:49;;;;;;;4.00;1.15;;;;;;;11.95;100.00;101772.88;5030461;28;20057;-86
2022/11/12 07:46:19;;;;;;;5.97;1.20;;;;;;;12.08;100.00;101790.91;5028976;28;20498;-87
2022/11/12 07:48:46;;;;;;;7.00;1.10;;;;;;;12.17;100.00;101784.56;5021259;28;20049;-86
2022/11/12 07:51:14;;;;;;;5.07;1.05;;;;;;;12.28;100.00;101785.97;5029436;28;20057;-87
2022/11/12 07:53:42;;;;;;;2.08;0.90;;;;;;;12.20;100.00;101785.34;5030581;28;20053;-85
2022/11/12 07:56:11;;;;;;;3.03;1.15;;;;;;;12.34;100.00;101790.16;5027895;28;20099;-84
2022/11/12 07:58:39;;;;;;;1.60;0.90;;;;;;;12.33;100.00;101783.22;5028187;28;20053;-85
2022/11/12 08:01:35;;;;;;;2.28;0.93;;;;;;;12.44;100.00;101799.53;5029873;28;20055;-86
2022/11/12 08:04:05;;;;;;;1.77;0.90;;;;;;;12.46;100.00;101802.09;5031303;28;20411;-86
2022/11/12 08:06:32;;;;;;;2.97;1.05;;;;;;;12.46;100.00;101805.59;5040512;28;20074;-85
2022/11/12 08:09:04;;;;;;;1.35;0.90;;;;;;;12.50;100.00;101806.34;5029494;28;20627;-86
2022/11/12 08:11:31;;;;;;;2.63;0.93;;;;;;;12.59;100.00;101816.63;5029779;28;20054;-86
2022/11/12 08:13:58;;;;;;;2.90;0.90;;;;;;;12.48;100.00;101795.91;5032710;28;20056;-85
2022/11/12 08:16:25;;;;;;;2.92;1.23;;;;;;;12.63;100.00;101826.13;5027142;28;20045;-85
2022/11/12 08:18:55;;;;;;;2.80;1.30;;;;;;;12.19;100.00;101762.59;5032697;28;20049;-87
2022/11/12 08:21:22;;;;;;;3.53;1.02;;;;;;;12.50;100.00;101832.63;5032024;28;20061;-86
2022/11/12 08:23:49;;;;;;;3.10;1.10;;;;;;;12.26;100.00;101803.53;5030458;28;20484;-89
2022/11/12 08:26:18;;;;;;;1.85;0.90;;;;;;;12.10;100.00;101799.59;5038664;28;20049;-90
2022/11/12 08:28:46;;;;;;;4.18;0.95;;;;;;;12.09;100.00;101800.50;5035735;28;20045;-89
2022/11/12 08:31:21;;;;;;;4.20;1.20;;;;;;;11.62;100.00;101721.25;5033467;28;20132;-87
2022/11/12 08:33:48;;;;;;;1.80;1.00;;;;;;;11.71;100.00;101755.97;5030568;28;20045;-85
2022/11/12 08:36:16;;;;;;;5.03;1.25;;;;;;;11.88;100.00;101784.41;5031686;28;20068;-87
2022/11/12 08:38:44;;;;;;;5.20;1.10;;;;;;;11.98;100.00;101798.16;5032587;28;20057;-87
2022/11/12 08:41:13;;;;;;;2.53;1.10;;;;;;;11.21;100.00;101671.59;5029965;28;20042;-86
2022/11/12 08:43:41;;;;;;;6.32;1.20;;;;;;;11.81;100.00;101760.97;5031716;28;20049;-85
2022/11/12 08:46:08;;;;;;;5.13;1.40;;;;;;;11.63;100.00;101722.97;5032272;28;20176;-87
2022/11/12 08:48:36;;;;;;;5.90;1.35;;;;;;;11.71;100.00;101731.50;5034545;28;20049;-89
2022/11/12 08:51:04;;;;;;;5.40;1.27;;;;;;;12.18;100.00;101805.50;5034792;28;20393;-89
2022/11/12 08:53:31;;;;;;;5.78;1.35;;;;;;;11.63;100.00;101738.69;5034752;28;20127;-89
2022/11/12 08:55:58;;;;;;;1.73;0.90;;;;;;;11.89;100.00;101757.25;5030069;28;20056;-89
2022/11/12 08:58:26;;;;;;;5.55;1.27;;;;;;;11.95;100.00;101743.13;5033452;28;20057;-88
2022/11/12 09:00:55;;;;;;;3.60;1.20;;;;;;;11.97;100.00;101712.47;5032146;28;20506;-88
2022/11/12 09:03:24;;;;;;;2.80;1.00;;;;;;;12.50;100.00;101777.47;5032423;28;20488;-87
2022/11/12 09:05:52;;;;;;;4.10;1.05;;;;;;;12.45;100.00;101784.63;5031341;28;20092;-87
2022/11/12 09:08:21;;;;;;;3.92;1.00;;;;;;;12.57;100.00;101780.78;5031299;28;20108;-87
2022/11/12 09:10:49;;;;;;;3.83;1.15;;;;;;;12.80;100.00;101799.38;5028058;28;20050;-87
2022/11/12 09:13:17;;;;;;;4.28;1.10;;;;;;;12.84;100.00;101795.75;5032998;28;20053;-89
2022/11/12 09:15:45;;;;;;;3.40;1.08;;;;;;;12.85;100.00;101807.94;5030947;28;20110;-88
2022/11/12 09:18:16;;;;;;;3.05;0.90;;;;;;;12.90;100.00;101813.94;5026911;28;20384;-88
2022/11/12 09:20:46;;;;;;;2.45;1.00;;;;;;;12.95;100.00;101813.81;5026228;28;20046;-89
2022/11/12 09:23:16;;;;;;;5.38;1.10;;;;;;;12.84;100.00;101779.13;5031787;28;20068;-89
2022/11/12 09:25:43;;;;;;;2.50;1.20;;;;;;;12.74;100.00;101746.97;5030808;28;20072;-90
2022/11/12 09:28:16;;;;;;;2.35;0.90;;;;;;;13.15;100.00;101799.19;5029724;28;20483;-86
2022/11/12 09:30:48;;;;;;;3.80;0.97;;;;;;;13.21;100.00;101801.59;5029125;28;20845;-88
2022/11/12 09:33:17;;;;;;;3.17;1.17;;;;;;;13.02;100.00;101759.28;5030261;28;20049;-89
2022/11/12 09:35:45;;;;;;;3.67;1.05;;;;;;;13.22;100.00;101806.81;5041336;28;20049;-88
2022/11/12 09:38:14;;;;;;;2.80;0.95;;;;;;;12.99;100.00;101756.75;5030709;28;20049;-89
2022/11/12 09:40:50;;;;;;;2.58;1.00;;;;;;;13.28;100.00;101796.13;5047492;28;20394;-87
2022/11/12 09:43:55;;;;;;;2.75;0.90;;;;;;;13.20;100.00;101784.13;5027309;28;20069;-89
2022/11/12 09:46:44;;;;;;;4.50;1.23;;;;;;;13.32;100.00;101796.06;4988388;28;20048;-88
2022/11/12 09:49:18;;;;;;;2.88;1.00;;;;;;;12.84;100.00;101718.66;5030616;28;20075;-88
2022/11/12 09:52:10;;;;;;;3.28;1.08;;;;;;;13.31;100.00;101787.28;5027997;28;20056;-87
2022/11/12 09:54:38;;;;;;;5.15;1.38;;;;;;;13.48;100.00;101776.22;5025331;28;20148;-86
2022/11/12 09:57:09;;;;;;;4.60;1.30;;;;;;;13.33;100.00;101745.16;5025036;28;20477;-88
2022/11/12 09:59:39;;;;;;;3.17;1.00;;;;;;;13.58;100.00;101785.53;5030051;28;20042;-88
2022/11/12 10:02:28;;;;;;;5.75;1.23;;;;;;;13.44;100.00;101757.06;5029893;28;20045;-89
2022/11/12 10:05:32;;;;;;;4.50;1.48;;;;;;;13.25;100.00;101748.03;5031082;28;20046;-89
2022/11/12 10:08:02;;;;;;;12.48;2.50;;;;;;;13.42;100.00;101779.03;5014742;28;20048;-87
2022/11/12 10:10:32;;;;;;;4.32;1.25;;;;;;;13.54;100.00;101789.16;5032388;28;20103;-88
2022/11/12 10:13:18;;;;;;;3.22;1.10;;;;;;;13.28;100.00;101735.63;5027389;28;20407;-88
2022/11/12 10:19:13;;;;;;;6.82;1.30;;;;;;;13.64;100.00;101766.91;5031559;28;20066;-86
2022/11/12 10:22:03;;;;;;;4.97;1.30;;;;;;;13.75;100.00;101770.94;5030358;28;20053;-88
2022/11/12 10:24:36;;;;;;;6.57;1.30;;;;;;;13.92;100.00;101802.81;5031950;28;20057;-87
2022/11/12 10:27:17;;;;;;;7.05;1.40;;;;;;;13.69;100.00;101753.59;5032154;28;20048;-87
2022/11/12 10:29:55;;;;;;;4.95;1.20;;;;;;;13.89;100.00;101787.13;5021914;28;20411;-87
2022/11/12 10:32:22;;;;;;;2.35;0.90;;;;;;;13.96;100.00;101780.72;5034370;28;20055;-87
2022/11/12 10:34:49;;;;;;;5.68;1.20;;;;;;;13.92;100.00;101781.75;5016259;28;20054;-89
2022/11/12 10:38:00;;;;;;;8.40;1.85;;;;;;;14.01;100.00;101802.50;5029035;28;20484;-87
2022/11/12 10:40:34;;;;;;;4.43;1.38;;;;;;;14.10;100.00;101796.03;5017798;28;20060;-88
2022/11/12 10:43:05;;;;;;;5.55;1.35;;;;;;;14.21;100.00;101790.38;5022730;28;20045;-92
2022/11/12 10:45:32;;;;;;;5.72;1.35;;;;;;;14.21;100.00;101790.38;5032040;28;20081;-88
2022/11/12 10:47:59;;;;;;;8.48;1.63;;;;;;;14.43;100.00;101812.41;5030591;28;20049;-87
2022/11/12 10:50:42;;;;;;;5.65;1.17;;;;;;;14.49;100.00;101797.28;5015838;28;20069;-87
2022/11/12 10:53:11;;;;;;;4.85;1.15;;;;;;;14.54;100.00;101790.94;5024150;28;20407;-88
2022/11/12 10:56:00;;;;;;;6.50;1.08;;;;;;;14.76;100.00;101798.06;5025322;28;20053;-87
2022/11/12 10:58:27;;;;;;;4.88;1.20;;;;;;;14.70;100.00;101785.13;5023758;28;20517;-87
2022/11/12 11:01:03;;;;;;;2.15;0.90;;;;;;;14.85;100.00;101800.31;5032196;28;20042;-86
2022/11/12 11:03:36;;;;;;;4.82;2.33;;;;;;;14.98;100.00;101784.91;5034548;28;20045;-86
2022/11/12 11:06:20;;;;;;;4.78;1.30;;;;;;;15.06;100.00;101768.78;5032398;28;20111;-88
2022/11/12 11:08:52;;;;;;;4.47;1.23;;;;;;;14.91;100.00;101750.00;5029071;28;20306;-87
2022/11/12 11:11:21;;;;;;;5.43;1.05;;;;;;;15.14;100.00;101777.25;5032328;28;20050;-86
2022/11/12 11:13:53;;;;;;;8.38;1.48;;;;;;;15.27;100.00;101780.25;5025782;28;20066;-87
2022/11/12 11:16:21;;;;;;;6.50;1.40;;;;;;;15.11;100.00;101751.00;5027470;28;20050;-87
2022/11/12 11:19:03;;;;;;;5.72;1.35;;;;;;;15.29;100.00;101763.41;5045186;28;20455;-87
2022/11/12 11:21:38;;;;;;;5.22;1.30;;;;;;;15.45;100.00;101765.44;5035392;28;20050;-93
2022/11/12 11:24:30;;;;;;;6.53;1.70;;;;;;;15.69;100.00;101760.91;5033743;28;20487;-89
2022/11/12 11:27:16;;;;;;;4.72;1.33;;;;;;;15.66;100.00;101753.97;5031785;28;20053;-91
2022/11/12 11:29:59;;;;;;;3.05;1.08;;;;;;;15.83;100.00;101749.75;5032320;28;20045;-90
2022/11/12 11:32:26;;;;;;;;;;;;;;;15.99;100.00;101745.53;5033674;28;20099;-90
2022/11/12 11:35:02;;;;;;;7.40;1.60;;;;;;;16.08;100.00;101744.28;5028214;28;19981;-90
2022/11/12 11:37:31;;;;;;;5.25;1.20;;;;;;;15.96;100.00;101729.81;5044390;28;20892;-90
2022/11/12 11:40:13;;;;;;;4.70;1.40;;;;;;;16.12;100.00;101732.63;5031484;28;20502;-89
2022/11/12 11:43:17;;;;;;;6.13;1.40;;;;;;;16.05;100.00;101721.47;5031817;28;20126;-90
2022/11/12 11:45:59;;;;;;;4.63;1.58;;;;;;;16.18;100.00;101721.78;5036723;28;20151;-90
2022/11/12 11:48:49;;;;;;;4.97;1.30;;;;;;;16.11;100.00;101720.34;5032067;28;20144;-89
2022/11/12 11:51:43;;;;;;;4.68;1.20;;;;;;;15.71;100.00;101662.22;5012731;28;20555;-89
2022/11/12 11:55:01;;;;;;;7.30;1.83;;;;;;;16.00;100.00;101709.41;5034775;28;20064;-91